createdAt,value
2018-01-01T00:01:02.065Z,98439.58
2018-01-01T00:03:27.995Z,98463.73
2018-01-01T00:05:54.839Z,98441.27
2018-01-01T00:08:20.760Z,98437.50
2018-01-01T00:10:47.832Z,98427.52
2018-01-01T00:13:13.829Z,98416.69
2018-01-01T00:15:39.793Z,98402.09
2018-01-01T00:18:05.729Z,98410.41
2018-01-01T00:20:31.695Z,98396.25
2018-01-01T00:22:57.648Z,98397.10
2018-01-01T00:25:23.604Z,98396.66
2018-01-01T00:27:49.536Z,98398.36
2018-01-01T00:30:15.465Z,98400.44
2018-01-01T00:32:41.404Z,98400.84
2018-01-01T00:35:07.344Z,98396.27
2018-01-01T00:37:33.289Z,98398.34
2018-01-01T00:39:59.215Z,98394.61
2018-01-01T00:42:25.182Z,98392.10
2018-01-01T00:44:51.235Z,98377.50
2018-01-01T00:47:17.211Z,98372.91
2018-01-01T00:49:43.150Z,98385.83
2018-01-01T00:52:09.070Z,98387.08
2018-01-01T00:54:36.009Z,98390.44
2018-01-01T00:59:33.322Z,98381.26
2018-01-01T01:01:59.328Z,98377.48
2018-01-01T01:04:28.327Z,98385.84
2018-01-01T01:06:54.253Z,98377.09
2018-01-01T01:09:20.215Z,98371.23
2018-01-01T01:11:46.141Z,98382.50
2018-01-01T01:14:12.110Z,98371.25
2018-01-01T01:16:38.065Z,98377.08
2018-01-01T01:19:04.059Z,98375.42
2018-01-01T01:21:29.997Z,98366.25
2018-01-01T01:23:55.953Z,98355.00
2018-01-01T01:26:21.923Z,98354.59
2018-01-01T01:28:47.857Z,98355.02
2018-01-01T01:31:13.809Z,98352.49
2018-01-01T01:33:39.747Z,98350.39
2018-01-01T01:36:05.710Z,98347.47
2018-01-01T01:38:31.637Z,98347.48
2018-01-01T01:40:57.584Z,98349.55
2018-01-01T01:43:23.513Z,98353.31
2018-01-01T01:45:49.429Z,98352.09
2018-01-01T01:48:15.383Z,98359.98
2018-01-01T01:50:41.309Z,98352.47
2018-01-01T01:53:07.270Z,98353.73
2018-01-01T01:55:33.213Z,98342.47
2018-01-01T01:57:59.169Z,98361.23
2018-01-01T02:00:25.105Z,98368.33
2018-01-01T02:02:51.077Z,98371.65
2018-01-01T02:05:17.033Z,98372.09
2018-01-01T02:07:42.962Z,98396.67
2018-01-01T02:10:08.907Z,98392.50
2018-01-01T02:12:34.842Z,98392.91
2018-01-01T02:15:00.821Z,98384.58
2018-01-01T02:17:26.747Z,98390.00
2018-01-01T02:19:52.674Z,98394.15
2018-01-01T02:22:18.617Z,98385.80
2018-01-01T02:24:44.533Z,98379.55
2018-01-01T02:27:10.479Z,98384.56
2018-01-01T02:29:36.407Z,98378.32
2018-01-01T02:32:02.373Z,98381.25
2018-01-01T02:34:28.302Z,98382.05
2018-01-01T02:36:54.265Z,98385.41
2018-01-01T02:39:20.200Z,98383.31
2018-01-01T02:41:46.231Z,98387.48
2018-01-01T02:44:12.974Z,98381.23
2018-01-01T02:46:38.912Z,98384.98
2018-01-01T02:49:04.839Z,98387.05
2018-01-01T02:51:30.766Z,98394.98
2018-01-01T02:53:56.725Z,98394.99
2018-01-01T02:56:22.653Z,98396.66
2018-01-01T02:58:48.605Z,98387.06
2018-01-01T03:01:14.557Z,98384.16
2018-01-01T03:03:40.477Z,98346.59
2018-01-01T03:06:06.410Z,98375.39
2018-01-01T03:08:32.347Z,98367.05
2018-01-01T03:10:58.330Z,98364.53
2018-01-01T03:13:24.262Z,98360.38
2018-01-01T03:15:50.209Z,98362.88
2018-01-01T03:18:16.151Z,98375.38
2018-01-01T03:20:42.116Z,98370.81
2018-01-01T03:23:08.039Z,98368.31
2018-01-01T03:25:34.010Z,98370.78
2018-01-01T03:27:59.945Z,98361.19
2018-01-01T03:30:25.894Z,98371.20
2018-01-01T03:32:51.823Z,98368.70
2018-01-01T03:35:17.813Z,98369.13
2018-01-01T03:37:43.773Z,98379.12
2018-01-01T03:40:09.716Z,98383.29
2018-01-01T03:42:35.667Z,98395.39
2018-01-01T03:45:01.582Z,98394.97
2018-01-01T03:47:27.510Z,98398.71
2018-01-01T03:49:53.449Z,98387.86
2018-01-01T03:52:19.370Z,98382.03
2018-01-01T03:54:45.295Z,98387.85
2018-01-01T03:57:11.259Z,98388.27
2018-01-01T03:59:37.180Z,98409.50
